New Yoshino — JG5527 — position and weather

sailwx.info

Track history (hours):
 
Tides and Currents Weather Stations Pressure Air Temp Water Temp Dewpoint Dewpoint Depression Visibility Wind Speed Wind Dir Waves Ship Positions

New Yoshino

Last reported at 2018-Feb-25 19:29 UTC. Time now 2018-Feb-25 19:58 UTC.
Position N 33°54' E 131°11'.

Length 102 m; draft 6.7 m.

Type: Tanker. MMSI: 431300724.

Date/timePositionNaut miles runAvg speedWind from/ knotsBaromVisibWave heightAir tempDewpointWater temp
2018-Feb-25 19:29N 33°54' E 131°11'0 0.0
2018-Feb-25 18:59N 33°54' E 131°11'0 0.0
2018-Feb-25 18:29N 33°54' E 131°11'0 0.0
2018-Feb-25 17:59N 33°54' E 131°11'0 0.0
2018-Feb-25 17:29N 33°54' E 131°11'0 0.0
2018-Feb-25 16:56N 33°54' E 131°11'0 0.0
2018-Feb-25 16:29N 33°54' E 131°11'0 0.0
2018-Feb-25 15:59N 33°54' E 131°11'0 0.1
2018-Feb-25 15:29N 33°54' E 131°11'0 0.4
2018-Feb-25 15:00N 33°54' E 131°11'5 9.9
2018-Feb-25 14:30N 33°51' E 131°16'613.0
2018-Feb-25 14:01N 33°50' E 131°24'612.9
2018-Feb-25 13:30N 33°49' E 131°31'612.6
2018-Feb-25 13:00N 33°47' E 131°39'612.5
2018-Feb-25 12:30N 33°46' E 131°46'612.1
2018-Feb-25 12:01N 33°40' E 131°47'612.3
2018-Feb-25 11:30N 33°34' E 131°50'912.2
2018-Feb-25 10:45N 33°26' E 131°55'412.0
2018-Feb-25 10:27N 33°23' E 131°57'511.7
2018-Feb-25 10:00N 33°18' E 132°00'812.1
2018-Feb-25 09:19N 33°11' E 132°06'25710.8
2018-Feb-24 09:29N 34°34' E 136°60'713.3
2018-Feb-24 08:59N 34°38' E 136°53'510.6
2018-Feb-24 08:30N 34°41' E 136°49'713.6
2018-Feb-24 08:00N 34°47' E 136°45'713.3
2018-Feb-24 07:30N 34°53' E 136°42'5 9.9
2018-Feb-24 07:00N 34°58' E 136°40'2 3.7
2018-Feb-24 06:26N 34°56' E 136°38'0 0.0
2018-Feb-24 05:56N 34°56' E 136°38'0 0.0
2018-Feb-24 05:26N 34°56' E 136°38'0 0.0
2018-Feb-24 04:57N 34°56' E 136°38'0 0.0
2018-Feb-24 04:26N 34°56' E 136°38'0 0.0
2018-Feb-24 03:56N 34°56' E 136°38'0 0.0
2018-Feb-24 03:26N 34°56' E 136°38'0 0.0
2018-Feb-24 02:57N 34°56' E 136°38'0 0.0
2018-Feb-24 02:26N 34°56' E 136°38'0 0.0
2018-Feb-24 01:53N 34°56' E 136°38'0 0.0
2018-Feb-24 01:26N 34°56' E 136°38'0 0.0
2018-Feb-24 00:50N 34°56' E 136°38'0 0.0
2018-Feb-24 00:26N 34°56' E 136°38'0 0.0
2018-Feb-23 23:56N 34°56' E 136°38'0 0.1
2018-Feb-23 23:30N 34°56' E 136°38'1 2.3
2018-Feb-23 23:00N 34°57' E 136°40'1 2.8
2018-Feb-23 22:28N 34°57' E 136°42'0 0.1
2018-Feb-23 21:58N 34°57' E 136°42'0 0.1
2018-Feb-23 21:25N 34°57' E 136°42'0 0.0
2018-Feb-23 20:55N 34°57' E 136°42'0 0.1
2018-Feb-23 20:28N 34°57' E 136°42'0 0.0
2018-Feb-23 19:58N 34°57' E 136°42'0 0.0
2018-Feb-23 19:28N 34°57' E 136°42'0 0.1
2018-Feb-23 18:58N 34°57' E 136°42'0 0.0
2018-Feb-23 18:28N 34°57' E 136°42'0 0.1
2018-Feb-23 18:01N 34°57' E 136°42'5 9.3
2018-Feb-23 17:30N 34°53' E 136°43'713.8
2018-Feb-23 17:00N 34°46' E 136°47'713.4
2018-Feb-23 16:30N 34°40' E 136°51'713.6
2018-Feb-23 16:00N 34°36' E 136°57'1112.3
2018-Feb-23 15:05N 34°33' E 137°10'213.4
2018-Feb-23 14:58N 34°33' E 137°12'713.1
2018-Feb-23 14:28N 34°32' E 137°20'4512.4
2018-Feb-23 10:53N 34°32' E 138°14'411.0
2018-Feb-23 10:30N 34°34' E 138°19'813.9
2018-Feb-23 09:57N 34°41' E 138°23'613.2
2018-Feb-23 09:30N 34°46' E 138°26'714.3
2018-Feb-23 09:01N 34°53' E 138°29'714.0
2018-Feb-23 08:30N 34°59' E 138°33'3 6.1
2018-Feb-23 08:01N 35°01' E 138°30'1 1.3
2018-Feb-23 07:30N 35°00' E 138°30'0 0.0
2018-Feb-23 07:00N 35°00' E 138°30'0 0.0
2018-Feb-23 06:29N 35°00' E 138°30'0 0.0
2018-Feb-23 06:00N 35°00' E 138°30'0 0.0
2018-Feb-23 05:30N 35°00' E 138°30'0 0.0
2018-Feb-23 05:00N 35°00' E 138°30'0 0.0
2018-Feb-23 04:29N 35°00' E 138°30'0 0.0
2018-Feb-23 03:59N 35°00' E 138°30'0 0.0
2018-Feb-23 03:30N 35°00' E 138°30'0 0.0
2018-Feb-23 03:00N 35°00' E 138°30'0 0.0
2018-Feb-23 02:29N 35°00' E 138°30'0 0.0
2018-Feb-23 02:00N 35°00' E 138°30'0 0.0
2018-Feb-23 01:29N 35°00' E 138°30'0 0.0
2018-Feb-23 00:59N 35°00' E 138°30'0 0.0
2018-Feb-23 00:27N 35°00' E 138°30'0 0.0
2018-Feb-23 00:00N 35°00' E 138°30'0 0.0
2018-Feb-22 23:30N 35°00' E 138°30'0 0.4
2018-Feb-22 23:00N 35°00' E 138°30'3 5.1
2018-Feb-22 22:31N 35°01' E 138°33'713.0
2018-Feb-22 22:00N 34°55' E 138°35'713.8
2018-Feb-22 21:30N 34°48' E 138°36'714.1
2018-Feb-22 21:00N 34°41' E 138°38'613.0
2018-Feb-22 20:30N 34°36' E 138°42'814.9
2018-Feb-22 20:00N 34°33' E 138°51'713.7
2018-Feb-22 19:30N 34°33' E 138°59'713.9
2018-Feb-22 19:00N 34°38' E 139°05'714.4
2018-Feb-22 18:29N 34°44' E 139°11'714.3
2018-Feb-22 17:59N 34°48' E 139°18'814.1
2018-Feb-22 17:24N 34°54' E 139°25'614.0
2018-Feb-22 17:00N 34°57' E 139°30'714.0
2018-Feb-22 16:30N 35°02' E 139°37'714.2
2018-Feb-22 16:00N 35°07' E 139°43'714.0
2018-Feb-22 15:30N 35°13' E 139°46'612.3
2018-Feb-22 15:00N 35°19' E 139°43'612.7
2018-Feb-22 14:31N 35°25' E 139°44'713.7
2018-Feb-22 14:01N 35°29' E 139°51'612.5
2018-Feb-22 13:30N 35°32' E 139°58'3 5.2
2018-Feb-22 12:58N 35°33' E 140°01'0 0.1
2018-Feb-22 12:28N 35°33' E 140°01'0 0.1
2018-Feb-22 11:52N 35°33' E 140°01'0 0.0
2018-Feb-22 11:28N 35°33' E 140°01'0 0.0
2018-Feb-22 10:58N 35°33' E 140°01'0 0.0
2018-Feb-22 10:25N 35°33' E 140°01'0 0.0
2018-Feb-22 09:55N 35°33' E 140°01'0 0.0
2018-Feb-22 09:28N 35°33' E 140°01'0 0.0
2018-Feb-22 08:55N 35°33' E 140°01'0 0.0
2018-Feb-22 08:28N 35°33' E 140°01'0 0.0
2018-Feb-22 07:58N 35°33' E 140°01'0 0.0
2018-Feb-22 07:28N 35°33' E 140°01'0 0.0
2018-Feb-22 06:58N 35°33' E 140°01'0 0.0
2018-Feb-22 06:28N 35°33' E 140°01'0 0.0
2018-Feb-22 05:55N 35°33' E 140°01'0 0.1
2018-Feb-22 05:28N 35°33' E 140°01'0 0.1
2018-Feb-22 04:55N 35°33' E 140°01'0 0.0
2018-Feb-22 04:28N 35°33' E 140°01'0 0.0
2018-Feb-22 03:58N 35°33' E 140°01'0 0.0
2018-Feb-22 03:28N 35°33' E 140°01'0 0.0
2018-Feb-22 02:58N 35°33' E 140°01'0 0.0
2018-Feb-22 02:25N 35°33' E 140°01'0 0.1
2018-Feb-22 01:58N 35°33' E 140°01'0 0.1
2018-Feb-22 01:28N 35°33' E 140°01'0 0.0
2018-Feb-22 00:55N 35°33' E 140°01'0 0.0
2018-Feb-22 00:28N 35°33' E 140°01'0 0.0
2018-Feb-21 23:58N 35°33' E 140°01'0 0.1
2018-Feb-21 23:25N 35°33' E 140°01'0 0.0
2018-Feb-21 22:55N 35°33' E 140°01'0 0.1
2018-Feb-21 22:28N 35°33' E 140°01'0 0.1
2018-Feb-21 21:55N 35°33' E 140°01'0 0.0
2018-Feb-21 21:28N 35°33' E 140°01'0 0.0
2018-Feb-21 20:58N 35°33' E 140°01'0 0.0
2018-Feb-21 20:28N 35°33' E 140°01'0 0.1
2018-Feb-21 19:58N 35°33' E 140°01'0 0.0
2018-Feb-21 19:25N 35°33' E 140°01'0 0.0
2018-Feb-21 18:58N 35°33' E 140°01'0 0.0
2018-Feb-21 18:25N 35°33' E 140°01'0 0.0
2018-Feb-21 17:58N 35°33' E 140°01'0 0.0
2018-Feb-21 17:28N 35°33' E 140°01'0 0.0
2018-Feb-21 16:58N 35°33' E 140°01'0 0.0
2018-Feb-21 16:28N 35°33' E 140°01'0 0.0
2018-Feb-21 15:55N 35°33' E 140°01'0 0.0
2018-Feb-21 15:25N 35°33' E 140°01'0 0.0
2018-Feb-21 14:55N 35°33' E 140°01'0 0.0
2018-Feb-21 14:28N 35°33' E 140°01'0 0.0
2018-Feb-21 13:58N 35°33' E 140°01'0 0.0
2018-Feb-21 13:28N 35°33' E 140°01'0 0.0
2018-Feb-21 12:58N 35°33' E 140°01'0 0.0
2018-Feb-21 12:28N 35°33' E 140°01'0 0.0
2018-Feb-21 11:58N 35°33' E 140°01'0 0.0
2018-Feb-21 11:28N 35°33' E 140°01'0 0.0
2018-Feb-21 10:58N 35°33' E 140°01'0 0.0
2018-Feb-21 10:28N 35°33' E 140°01'0 0.0
2018-Feb-21 09:58N 35°33' E 140°01'0 0.0
2018-Feb-21 09:28N 35°33' E 140°01'0 0.0
2018-Feb-21 08:58N 35°33' E 140°01'0 0.0
2018-Feb-21 08:25N 35°33' E 140°01'0 0.0
2018-Feb-21 07:58N 35°33' E 140°01'0 0.0
2018-Feb-21 07:25N 35°33' E 140°01'0 0.0
2018-Feb-21 06:58N 35°33' E 140°01'0 0.1
2018-Feb-21 06:28N 35°33' E 140°01'0 0.0
2018-Feb-21 05:58N 35°33' E 140°01'0 0.0
2018-Feb-21 05:25N 35°33' E 140°01'0 0.0
2018-Feb-21 04:58N 35°33' E 140°01'0 0.0
2018-Feb-21 04:25N 35°33' E 140°01'2 5.8
2018-Feb-21 04:01N 35°35' E 140°03'3 5.1
2018-Feb-21 03:30N 35°36' E 140°06'0 0.0
2018-Feb-21 03:00N 35°36' E 140°06'0 0.0
2018-Feb-21 02:30N 35°36' E 140°06'0 0.0
2018-Feb-21 02:00N 35°36' E 140°06'0 0.0
2018-Feb-21 01:30N 35°36' E 140°06'0 0.0
2018-Feb-21 01:00N 35°36' E 140°06'0 0.0
2018-Feb-21 00:30N 35°36' E 140°06'0 0.0
2018-Feb-21 00:00N 35°36' E 140°06'0 0.0
2018-Feb-20 23:30N 35°36' E 140°06'0 0.6
2018-Feb-20 23:00N 35°35' E 140°06'4 8.1
2018-Feb-20 22:30N 35°34' E 140°01'1 2.6
2018-Feb-20 21:57N 35°33' E 140°00'0 0.0
2018-Feb-20 21:27N 35°33' E 140°00'0 0.0
2018-Feb-20 21:00N 35°33' E 140°00'0 0.0
2018-Feb-20 20:30N 35°33' E 140°00'0 0.1
2018-Feb-20 19:57N 35°33' E 140°00'0 0.0
2018-Feb-20 19:27N 35°33' E 140°00'0 0.0
2018-Feb-20 18:51N 35°33' E 140°00'0 0.0
2018-Feb-20 18:30N 35°33' E 140°00'0 0.0
2018-Feb-20 18:00N 35°33' E 140°00'0 0.0
2018-Feb-20 17:30N 35°33' E 140°00'0 0.0
2018-Feb-20 16:57N 35°33' E 140°00'0 0.1
2018-Feb-20 16:27N 35°33' E 140°00'0 0.1
2018-Feb-20 15:57N 35°33' E 140°00'0 0.0
2018-Feb-20 15:27N 35°33' E 140°00'0 0.2
2018-Feb-20 14:57N 35°33' E 140°00'0 0.1
2018-Feb-20 14:27N 35°33' E 140°00'0 0.0
2018-Feb-20 13:57N 35°33' E 140°00'0 0.0
2018-Feb-20 13:27N 35°33' E 140°00'0 0.1
2018-Feb-20 12:57N 35°33' E 140°00'2 3.9
2018-Feb-20 12:30N 35°32' E 139°59'713.7
2018-Feb-20 12:00N 35°28' E 139°51'713.4
2018-Feb-20 11:30N 35°23' E 139°46'611.3
2018-Feb-20 11:00N 35°18' E 139°45'612.0
2018-Feb-20 10:30N 35°12' E 139°47'714.4
2018-Feb-20 10:01N 35°05' E 139°45'914.5
2018-Feb-20 09:22N 34°56' E 139°44'1810.8
2018-Feb-20 07:40N 34°57' E 140°07'  
2018-Feb-17 16:06N 34°59' E 140°13'311.3
2018-Feb-17 15:49N 34°57' E 140°11'23 8.9
2018-Feb-17 13:13N 35°01' E 139°43'313.4
2018-Feb-17 13:00N 35°04' E 139°44'713.5
2018-Feb-17 12:31N 35°11' E 139°45'612.6
2018-Feb-17 12:00N 35°17' E 139°45'613.1
2018-Feb-17 11:30N 35°23' E 139°43'713.4
2018-Feb-17 11:00N 35°28' E 139°49'712.9
2018-Feb-17 10:30N 35°31' E 139°56'4 8.9
2018-Feb-17 10:00N 35°30' E 140°01'1 0.2
2018-Feb-17 06:19N 35°30' E 140°02'0 0.5
2018-Feb-17 06:00N 35°30' E 140°02'0 0.0
2018-Feb-17 03:11N 35°30' E 140°01'0 0.6
2018-Feb-17 03:00N 35°30' E 140°01'2 4.2
2018-Feb-17 02:30N 35°31' E 139°59'4 8.2
2018-Feb-17 02:00N 35°29' E 139°55'0 0.0
2018-Feb-17 01:28N 35°29' E 139°55'0 0.0
2018-Feb-17 01:01N 35°29' E 139°55'3 5.9
2018-Feb-17 00:30N 35°28' E 139°51'713.1
2018-Feb-17 00:00N 35°23' E 139°46'611.2
2018-Feb-16 23:30N 35°17' E 139°45'612.0
2018-Feb-16 23:00N 35°11' E 139°47'713.8
2018-Feb-16 22:30N 35°05' E 139°45'1012.7
2018-Feb-16 21:42N 34°55' E 139°45'311.7
2018-Feb-16 21:29N 34°52' E 139°46'613.4
2018-Feb-16 21:00N 34°51' E 139°54'913.3
2018-Feb-16 20:20N 34°55' E 140°03'  
Track history (hours):
 
Tides and Currents Weather Stations Pressure Air Temp Water Temp Dewpoint Dewpoint Depression Visibility Wind Speed Wind Dir Waves Ship Positions

New Yoshino

Last reported at 2018-Feb-25 19:29 UTC. Time now 2018-Feb-25 19:58 UTC.
Position N 33°54' E 131°11'.

Length 102 m; draft 6.7 m.

Type: Tanker. MMSI: 431300724.

Date/timePositionNaut miles runAvg speedWind from/ knotsBaromVisibWave heightAir tempDewpointWater temp
2018-Feb-25 19:29N 33°54' E 131°11'0 0.0
2018-Feb-25 18:59N 33°54' E 131°11'0 0.0
2018-Feb-25 18:29N 33°54' E 131°11'0 0.0
2018-Feb-25 17:59N 33°54' E 131°11'0 0.0
2018-Feb-25 17:29N 33°54' E 131°11'0 0.0
2018-Feb-25 16:56N 33°54' E 131°11'0 0.0
2018-Feb-25 16:29N 33°54' E 131°11'0 0.0
2018-Feb-25 15:59N 33°54' E 131°11'0 0.1
2018-Feb-25 15:29N 33°54' E 131°11'0 0.4
2018-Feb-25 15:00N 33°54' E 131°11'5 9.9
2018-Feb-25 14:30N 33°51' E 131°16'613.0
2018-Feb-25 14:01N 33°50' E 131°24'612.9
2018-Feb-25 13:30N 33°49' E 131°31'612.6
2018-Feb-25 13:00N 33°47' E 131°39'612.5
2018-Feb-25 12:30N 33°46' E 131°46'612.1
2018-Feb-25 12:01N 33°40' E 131°47'612.3
2018-Feb-25 11:30N 33°34' E 131°50'912.2
2018-Feb-25 10:45N 33°26' E 131°55'412.0
2018-Feb-25 10:27N 33°23' E 131°57'511.7
2018-Feb-25 10:00N 33°18' E 132°00'812.1
2018-Feb-25 09:19N 33°11' E 132°06'25710.8
2018-Feb-24 09:29N 34°34' E 136°60'713.3
2018-Feb-24 08:59N 34°38' E 136°53'510.6
2018-Feb-24 08:30N 34°41' E 136°49'713.6
2018-Feb-24 08:00N 34°47' E 136°45'713.3
2018-Feb-24 07:30N 34°53' E 136°42'5 9.9
2018-Feb-24 07:00N 34°58' E 136°40'2 3.7
2018-Feb-24 06:26N 34°56' E 136°38'0 0.0
2018-Feb-24 05:56N 34°56' E 136°38'0 0.0
2018-Feb-24 05:26N 34°56' E 136°38'0 0.0
2018-Feb-24 04:57N 34°56' E 136°38'0 0.0
2018-Feb-24 04:26N 34°56' E 136°38'0 0.0
2018-Feb-24 03:56N 34°56' E 136°38'0 0.0
2018-Feb-24 03:26N 34°56' E 136°38'0 0.0
2018-Feb-24 02:57N 34°56' E 136°38'0 0.0
2018-Feb-24 02:26N 34°56' E 136°38'0 0.0
2018-Feb-24 01:53N 34°56' E 136°38'0 0.0
2018-Feb-24 01:26N 34°56' E 136°38'0 0.0
2018-Feb-24 00:50N 34°56' E 136°38'0 0.0
2018-Feb-24 00:26N 34°56' E 136°38'0 0.0
2018-Feb-23 23:56N 34°56' E 136°38'0 0.1
2018-Feb-23 23:30N 34°56' E 136°38'1 2.3
2018-Feb-23 23:00N 34°57' E 136°40'1 2.8
2018-Feb-23 22:28N 34°57' E 136°42'0 0.1
2018-Feb-23 21:58N 34°57' E 136°42'0 0.1
2018-Feb-23 21:25N 34°57' E 136°42'0 0.0
2018-Feb-23 20:55N 34°57' E 136°42'0 0.1
2018-Feb-23 20:28N 34°57' E 136°42'0 0.0
2018-Feb-23 19:58N 34°57' E 136°42'0 0.0
2018-Feb-23 19:28N 34°57' E 136°42'0 0.1
2018-Feb-23 18:58N 34°57' E 136°42'0 0.0
2018-Feb-23 18:28N 34°57' E 136°42'0 0.1
2018-Feb-23 18:01N 34°57' E 136°42'5 9.3
2018-Feb-23 17:30N 34°53' E 136°43'713.8
2018-Feb-23 17:00N 34°46' E 136°47'713.4
2018-Feb-23 16:30N 34°40' E 136°51'713.6
2018-Feb-23 16:00N 34°36' E 136°57'1112.3
2018-Feb-23 15:05N 34°33' E 137°10'213.4
2018-Feb-23 14:58N 34°33' E 137°12'713.1
2018-Feb-23 14:28N 34°32' E 137°20'4512.4
2018-Feb-23 10:53N 34°32' E 138°14'411.0
2018-Feb-23 10:30N 34°34' E 138°19'813.9
2018-Feb-23 09:57N 34°41' E 138°23'613.2
2018-Feb-23 09:30N 34°46' E 138°26'714.3
2018-Feb-23 09:01N 34°53' E 138°29'714.0
2018-Feb-23 08:30N 34°59' E 138°33'3 6.1
2018-Feb-23 08:01N 35°01' E 138°30'1 1.3
2018-Feb-23 07:30N 35°00' E 138°30'0 0.0
2018-Feb-23 07:00N 35°00' E 138°30'0 0.0
2018-Feb-23 06:29N 35°00' E 138°30'0 0.0
2018-Feb-23 06:00N 35°00' E 138°30'0 0.0
2018-Feb-23 05:30N 35°00' E 138°30'0 0.0
2018-Feb-23 05:00N 35°00' E 138°30'0 0.0
2018-Feb-23 04:29N 35°00' E 138°30'0 0.0
2018-Feb-23 03:59N 35°00' E 138°30'0 0.0
2018-Feb-23 03:30N 35°00' E 138°30'0 0.0
2018-Feb-23 03:00N 35°00' E 138°30'0 0.0
2018-Feb-23 02:29N 35°00' E 138°30'0 0.0
2018-Feb-23 02:00N 35°00' E 138°30'0 0.0
2018-Feb-23 01:29N 35°00' E 138°30'0 0.0
2018-Feb-23 00:59N 35°00' E 138°30'0 0.0
2018-Feb-23 00:27N 35°00' E 138°30'0 0.0
2018-Feb-23 00:00N 35°00' E 138°30'0 0.0
2018-Feb-22 23:30N 35°00' E 138°30'0 0.4
2018-Feb-22 23:00N 35°00' E 138°30'3 5.1
2018-Feb-22 22:31N 35°01' E 138°33'713.0
2018-Feb-22 22:00N 34°55' E 138°35'713.8
2018-Feb-22 21:30N 34°48' E 138°36'714.1
2018-Feb-22 21:00N 34°41' E 138°38'613.0
2018-Feb-22 20:30N 34°36' E 138°42'814.9
2018-Feb-22 20:00N 34°33' E 138°51'713.7
2018-Feb-22 19:30N 34°33' E 138°59'713.9
2018-Feb-22 19:00N 34°38' E 139°05'714.4
2018-Feb-22 18:29N 34°44' E 139°11'714.3
2018-Feb-22 17:59N 34°48' E 139°18'814.1
2018-Feb-22 17:24N 34°54' E 139°25'614.0
2018-Feb-22 17:00N 34°57' E 139°30'714.0
2018-Feb-22 16:30N 35°02' E 139°37'714.2
2018-Feb-22 16:00N 35°07' E 139°43'714.0
2018-Feb-22 15:30N 35°13' E 139°46'612.3
2018-Feb-22 15:00N 35°19' E 139°43'612.7
2018-Feb-22 14:31N 35°25' E 139°44'713.7
2018-Feb-22 14:01N 35°29' E 139°51'612.5
2018-Feb-22 13:30N 35°32' E 139°58'3 5.2
2018-Feb-22 12:58N 35°33' E 140°01'0 0.1
2018-Feb-22 12:28N 35°33' E 140°01'0 0.1
2018-Feb-22 11:52N 35°33' E 140°01'0 0.0
2018-Feb-22 11:28N 35°33' E 140°01'0 0.0
2018-Feb-22 10:58N 35°33' E 140°01'0 0.0
2018-Feb-22 10:25N 35°33' E 140°01'0 0.0
2018-Feb-22 09:55N 35°33' E 140°01'0 0.0
2018-Feb-22 09:28N 35°33' E 140°01'0 0.0
2018-Feb-22 08:55N 35°33' E 140°01'0 0.0
2018-Feb-22 08:28N 35°33' E 140°01'0 0.0
2018-Feb-22 07:58N 35°33' E 140°01'0 0.0
2018-Feb-22 07:28N 35°33' E 140°01'0 0.0
2018-Feb-22 06:58N 35°33' E 140°01'0 0.0
2018-Feb-22 06:28N 35°33' E 140°01'0 0.0
2018-Feb-22 05:55N 35°33' E 140°01'0 0.1
2018-Feb-22 05:28N 35°33' E 140°01'0 0.1
2018-Feb-22 04:55N 35°33' E 140°01'0 0.0
2018-Feb-22 04:28N 35°33' E 140°01'0 0.0
2018-Feb-22 03:58N 35°33' E 140°01'0 0.0
2018-Feb-22 03:28N 35°33' E 140°01'0 0.0
2018-Feb-22 02:58N 35°33' E 140°01'0 0.0
2018-Feb-22 02:25N 35°33' E 140°01'0 0.1
2018-Feb-22 01:58N 35°33' E 140°01'0 0.1
2018-Feb-22 01:28N 35°33' E 140°01'0 0.0
2018-Feb-22 00:55N 35°33' E 140°01'0 0.0
2018-Feb-22 00:28N 35°33' E 140°01'0 0.0
2018-Feb-21 23:58N 35°33' E 140°01'0 0.1
2018-Feb-21 23:25N 35°33' E 140°01'0 0.0
2018-Feb-21 22:55N 35°33' E 140°01'0 0.1
2018-Feb-21 22:28N 35°33' E 140°01'0 0.1
2018-Feb-21 21:55N 35°33' E 140°01'0 0.0
2018-Feb-21 21:28N 35°33' E 140°01'0 0.0
2018-Feb-21 20:58N 35°33' E 140°01'0 0.0
2018-Feb-21 20:28N 35°33' E 140°01'0 0.1
2018-Feb-21 19:58N 35°33' E 140°01'0 0.0
2018-Feb-21 19:25N 35°33' E 140°01'0 0.0
2018-Feb-21 18:58N 35°33' E 140°01'0 0.0
2018-Feb-21 18:25N 35°33' E 140°01'0 0.0
2018-Feb-21 17:58N 35°33' E 140°01'0 0.0
2018-Feb-21 17:28N 35°33' E 140°01'0 0.0
2018-Feb-21 16:58N 35°33' E 140°01'0 0.0
2018-Feb-21 16:28N 35°33' E 140°01'0 0.0
2018-Feb-21 15:55N 35°33' E 140°01'0 0.0
2018-Feb-21 15:25N 35°33' E 140°01'0 0.0
2018-Feb-21 14:55N 35°33' E 140°01'0 0.0
2018-Feb-21 14:28N 35°33' E 140°01'0 0.0
2018-Feb-21 13:58N 35°33' E 140°01'0 0.0
2018-Feb-21 13:28N 35°33' E 140°01'0 0.0
2018-Feb-21 12:58N 35°33' E 140°01'0 0.0
2018-Feb-21 12:28N 35°33' E 140°01'0 0.0
2018-Feb-21 11:58N 35°33' E 140°01'0 0.0
2018-Feb-21 11:28N 35°33' E 140°01'0 0.0
2018-Feb-21 10:58N 35°33' E 140°01'0 0.0
2018-Feb-21 10:28N 35°33' E 140°01'0 0.0
2018-Feb-21 09:58N 35°33' E 140°01'0 0.0
2018-Feb-21 09:28N 35°33' E 140°01'0 0.0
2018-Feb-21 08:58N 35°33' E 140°01'0 0.0
2018-Feb-21 08:25N 35°33' E 140°01'0 0.0
2018-Feb-21 07:58N 35°33' E 140°01'0 0.0
2018-Feb-21 07:25N 35°33' E 140°01'0 0.0
2018-Feb-21 06:58N 35°33' E 140°01'0 0.1
2018-Feb-21 06:28N 35°33' E 140°01'0 0.0
2018-Feb-21 05:58N 35°33' E 140°01'0 0.0
2018-Feb-21 05:25N 35°33' E 140°01'0 0.0
2018-Feb-21 04:58N 35°33' E 140°01'0 0.0
2018-Feb-21 04:25N 35°33' E 140°01'2 5.8
2018-Feb-21 04:01N 35°35' E 140°03'3 5.1
2018-Feb-21 03:30N 35°36' E 140°06'0 0.0
2018-Feb-21 03:00N 35°36' E 140°06'0 0.0
2018-Feb-21 02:30N 35°36' E 140°06'0 0.0
2018-Feb-21 02:00N 35°36' E 140°06'0 0.0
2018-Feb-21 01:30N 35°36' E 140°06'0 0.0
2018-Feb-21 01:00N 35°36' E 140°06'0 0.0
2018-Feb-21 00:30N 35°36' E 140°06'0 0.0
2018-Feb-21 00:00N 35°36' E 140°06'0 0.0
2018-Feb-20 23:30N 35°36' E 140°06'0 0.6
2018-Feb-20 23:00N 35°35' E 140°06'4 8.1
2018-Feb-20 22:30N 35°34' E 140°01'1 2.6
2018-Feb-20 21:57N 35°33' E 140°00'0 0.0
2018-Feb-20 21:27N 35°33' E 140°00'0 0.0
2018-Feb-20 21:00N 35°33' E 140°00'0 0.0
2018-Feb-20 20:30N 35°33' E 140°00'0 0.1
2018-Feb-20 19:57N 35°33' E 140°00'0 0.0
2018-Feb-20 19:27N 35°33' E 140°00'0 0.0
2018-Feb-20 18:51N 35°33' E 140°00'0 0.0
2018-Feb-20 18:30N 35°33' E 140°00'0 0.0
2018-Feb-20 18:00N 35°33' E 140°00'0 0.0
2018-Feb-20 17:30N 35°33' E 140°00'0 0.0
2018-Feb-20 16:57N 35°33' E 140°00'0 0.1
2018-Feb-20 16:27N 35°33' E 140°00'0 0.1
2018-Feb-20 15:57N 35°33' E 140°00'0 0.0
2018-Feb-20 15:27N 35°33' E 140°00'0 0.2
2018-Feb-20 14:57N 35°33' E 140°00'0 0.1
2018-Feb-20 14:27N 35°33' E 140°00'0 0.0
2018-Feb-20 13:57N 35°33' E 140°00'0 0.0
2018-Feb-20 13:27N 35°33' E 140°00'0 0.1
2018-Feb-20 12:57N 35°33' E 140°00'2 3.9
2018-Feb-20 12:30N 35°32' E 139°59'713.7
2018-Feb-20 12:00N 35°28' E 139°51'713.4
2018-Feb-20 11:30N 35°23' E 139°46'611.3
2018-Feb-20 11:00N 35°18' E 139°45'612.0
2018-Feb-20 10:30N 35°12' E 139°47'714.4
2018-Feb-20 10:01N 35°05' E 139°45'914.5
2018-Feb-20 09:22N 34°56' E 139°44'1810.8
2018-Feb-20 07:40N 34°57' E 140°07'  
2018-Feb-17 16:06N 34°59' E 140°13'311.3
2018-Feb-17 15:49N 34°57' E 140°11'23 8.9
2018-Feb-17 13:13N 35°01' E 139°43'313.4
2018-Feb-17 13:00N 35°04' E 139°44'713.5
2018-Feb-17 12:31N 35°11' E 139°45'612.6
2018-Feb-17 12:00N 35°17' E 139°45'613.1
2018-Feb-17 11:30N 35°23' E 139°43'713.4
2018-Feb-17 11:00N 35°28' E 139°49'712.9
2018-Feb-17 10:30N 35°31' E 139°56'4 8.9
2018-Feb-17 10:00N 35°30' E 140°01'1 0.2
2018-Feb-17 06:19N 35°30' E 140°02'0 0.5
2018-Feb-17 06:00N 35°30' E 140°02'0 0.0
2018-Feb-17 03:11N 35°30' E 140°01'0 0.6
2018-Feb-17 03:00N 35°30' E 140°01'2 4.2
2018-Feb-17 02:30N 35°31' E 139°59'4 8.2
2018-Feb-17 02:00N 35°29' E 139°55'0 0.0
2018-Feb-17 01:28N 35°29' E 139°55'0 0.0
2018-Feb-17 01:01N 35°29' E 139°55'3 5.9
2018-Feb-17 00:30N 35°28' E 139°51'713.1
2018-Feb-17 00:00N 35°23' E 139°46'611.2
2018-Feb-16 23:30N 35°17' E 139°45'612.0
2018-Feb-16 23:00N 35°11' E 139°47'713.8
2018-Feb-16 22:30N 35°05' E 139°45'1012.7
2018-Feb-16 21:42N 34°55' E 139°45'311.7
2018-Feb-16 21:29N 34°52' E 139°46'613.4
2018-Feb-16 21:00N 34°51' E 139°54'913.3
2018-Feb-16 20:20N 34°55' E 140°03'  

Dump ship's entire track history